Time;durP1;ratioP1;P1;durP2;ratioP2;P2;SDS_P1;SDS_P2;PMS_P1;PMS_P2;Temp;Humidity;BMP_temperature;BMP_pressure;BME280_temperature;BME280_humidity;BME280_pressure;Samples;Min_cycle;Max_cycle;Signal;HPM_P1;HPM_P2
2021/10/28 00:12:53;;;;;;;139.70;103.80;;;;;;;3.13;92.12;99920.27;112534;1191;61058;-77
2021/10/28 00:15:28;;;;;;;135.20;100.40;;;;;;;3.11;92.08;99918.77;112509;1192;63660;-78
2021/10/28 00:18:05;;;;;;;151.90;107.10;;;;;;;3.09;92.22;99919.31;112521;1193;61154;-77
2021/10/28 00:20:36;;;;;;;140.20;104.70;;;;;;;3.07;92.33;99917.94;112564;1192;61329;-77
2021/10/28 00:23:07;;;;;;;151.40;108.00;;;;;;;3.06;92.40;99922.88;112555;1192;66033;-76
2021/10/28 00:25:38;;;;;;;157.00;109.60;;;;;;;3.06;92.46;99925.19;112546;1193;60956;-77
2021/10/28 00:28:06;;;;;;;138.00;106.40;;;;;;;3.05;92.47;99926.96;112547;1192;62691;-77
2021/10/28 00:30:34;;;;;;;139.80;101.60;;;;;;;3.03;92.46;99926.98;112546;1192;61164;-77
2021/10/28 00:33:00;;;;;;;140.60;101.10;;;;;;;3.02;92.46;99922.79;112593;1192;61125;-78
2021/10/28 00:35:27;;;;;;;137.00;99.20;;;;;;;3.02;92.44;99920.34;112437;1191;61042;-79
2021/10/28 00:37:53;;;;;;;136.60;101.30;;;;;;;2.99;92.33;99921.29;112551;1192;61073;-79
2021/10/28 00:40:20;;;;;;;138.50;102.10;;;;;;;2.94;92.23;99922.08;112509;1192;64988;-78
2021/10/28 00:42:46;;;;;;;127.60;94.70;;;;;;;2.92;92.31;99923.02;112328;1193;61068;-79
2021/10/28 00:45:13;;;;;;;129.00;94.40;;;;;;;2.90;92.31;99926.04;112586;1193;61434;-78
2021/10/28 00:47:41;;;;;;;142.20;101.90;;;;;;;2.88;92.34;99926.42;112560;1192;64491;-76
2021/10/28 00:50:09;;;;;;;139.50;100.50;;;;;;;2.89;92.42;99926.56;112582;1192;61076;-78
2021/10/28 00:52:36;;;;;;;130.10;95.10;;;;;;;2.88;92.45;99925.90;112336;1192;64782;-78
2021/10/28 00:55:04;;;;;;;127.60;94.20;;;;;;;2.86;92.29;99924.71;112571;1192;61053;-78
2021/10/28 00:57:35;;;;;;;133.50;96.80;;;;;;;2.83;92.23;99920.40;112585;1193;60975;-78
2021/10/28 01:00:04;;;;;;;124.70;91.00;;;;;;;2.79;92.26;99917.48;112514;1192;65889;-78
2021/10/28 01:02:31;;;;;;;119.00;88.20;;;;;;;2.77;92.23;99916.65;112541;1193;60966;-78
2021/10/28 01:04:59;;;;;;;125.30;91.60;;;;;;;2.75;92.14;99916.88;112521;1191;63946;-76
2021/10/28 01:07:26;;;;;;;128.00;93.50;;;;;;;2.71;92.15;99918.88;112577;1191;60991;-76
2021/10/28 01:09:54;;;;;;;127.70;93.80;;;;;;;2.72;92.25;99923.27;112524;1184;61014;-76
2021/10/28 01:12:21;;;;;;;126.20;93.30;;;;;;;2.73;92.35;99924.27;112546;1192;64484;-77
2021/10/28 01:14:48;;;;;;;117.10;90.80;;;;;;;2.72;92.36;99922.02;112516;1193;61036;-76
2021/10/28 01:17:14;;;;;;;122.00;90.00;;;;;;;2.68;92.24;99926.31;112453;1193;60985;-77
2021/10/28 01:19:41;;;;;;;129.30;91.30;;;;;;;2.64;92.25;99930.59;112539;1176;61004;-77
2021/10/28 01:22:07;;;;;;;124.70;91.00;;;;;;;2.62;92.29;99928.36;112332;1192;60985;-77
2021/10/28 01:24:34;;;;;;;120.70;84.50;;;;;;;2.59;92.18;99929.82;112527;1191;65780;-76
2021/10/28 01:27:08;;;;;;;127.30;90.50;;;;;;;2.55;92.12;99930.60;112495;1192;61056;-77
2021/10/28 01:29:36;;;;;;;116.70;87.90;;;;;;;2.53;92.21;99933.79;112525;1192;62341;-76
2021/10/28 01:32:06;;;;;;;122.20;88.70;;;;;;;2.53;92.22;99932.21;112489;1192;61006;-77
2021/10/28 01:34:33;;;;;;;131.10;91.50;;;;;;;2.51;92.20;99931.55;112538;1192;61026;-78
2021/10/28 01:37:00;;;;;;;132.30;94.80;;;;;;;2.48;92.25;99934.95;112487;1193;65599;-78
2021/10/28 01:39:26;;;;;;;126.10;91.60;;;;;;;2.47;92.38;99931.80;112515;1193;61057;-78
2021/10/28 01:41:56;;;;;;;128.10;94.20;;;;;;;2.47;92.51;99931.80;112521;1192;65040;-78
2021/10/28 01:44:27;;;;;;;131.10;96.20;;;;;;;2.48;92.71;99929.86;112508;1192;61466;-78
2021/10/28 01:46:54;;;;;;;121.40;92.40;;;;;;;2.49;92.62;99928.80;112492;1193;61023;-78
2021/10/28 01:49:26;;;;;;;124.50;91.30;;;;;;;2.48;92.56;99928.63;112511;1193;65590;-78
2021/10/28 01:51:54;;;;;;;125.60;90.30;;;;;;;2.46;92.36;99924.81;112359;1192;60991;-78
2021/10/28 01:54:22;;;;;;;125.10;91.60;;;;;;;2.42;92.37;99924.88;112510;1193;63996;-78
2021/10/28 01:56:50;;;;;;;115.30;87.50;;;;;;;2.40;92.44;99924.57;112409;1193;61051;-76
2021/10/28 01:59:18;;;;;;;123.80;96.80;;;;;;;2.37;92.41;99922.36;112624;1193;61155;-76
2021/10/28 02:01:44;;;;;;;134.60;95.60;;;;;;;2.34;92.52;99925.38;112318;1192;65823;-77
2021/10/28 02:04:12;;;;;;;124.80;91.40;;;;;;;2.33;92.61;99923.48;112569;1193;61036;-76
2021/10/28 02:06:39;;;;;;;122.40;91.20;;;;;;;2.32;92.62;99918.77;112505;1192;71128;-77
2021/10/28 02:09:05;;;;;;;122.80;95.80;;;;;;;2.31;92.51;99922.65;112324;1193;61035;-77
2021/10/28 02:11:32;;;;;;;132.70;97.20;;;;;;;2.29;92.55;99919.17;112517;1192;61033;-76
2021/10/28 02:13:59;;;;;;;154.20;110.80;;;;;;;2.26;92.59;99920.27;112549;1193;64470;-76
2021/10/28 02:16:34;;;;;;;138.90;103.80;;;;;;;2.25;92.81;99915.36;112528;1193;61039;-76
2021/10/28 02:19:03;;;;;;;139.60;101.20;;;;;;;2.26;92.83;99916.94;112343;1193;63703;-76
2021/10/28 02:21:30;;;;;;;128.50;96.90;;;;;;;2.24;92.73;99919.08;112546;1192;61029;-76
2021/10/28 02:23:57;;;;;;;134.30;97.10;;;;;;;2.22;92.69;99913.84;112483;1192;61042;-76
2021/10/28 02:26:25;;;;;;;141.00;103.40;;;;;;;2.20;92.68;99912.65;112490;1192;66633;-76
2021/10/28 02:28:54;;;;;;;137.10;104.00;;;;;;;2.20;92.85;99912.65;112354;1192;61128;-76
2021/10/28 02:31:20;;;;;;;139.90;102.40;;;;;;;2.21;92.99;99916.49;112530;1193;63692;-76
2021/10/28 02:33:47;;;;;;;141.30;106.00;;;;;;;2.19;92.81;99915.66;112472;1192;61065;-76
2021/10/28 02:36:14;;;;;;;150.70;107.60;;;;;;;2.15;92.87;99915.71;112425;1193;61073;-77
2021/10/28 02:38:42;;;;;;;147.20;108.20;;;;;;;2.15;93.24;99919.41;112524;1192;65894;-76
2021/10/28 02:41:08;;;;;;;145.70;110.20;;;;;;;2.18;93.36;99914.96;112306;1192;67065;-77
2021/10/28 02:43:35;;;;;;;139.40;104.00;;;;;;;2.19;93.41;99915.48;112518;1192;62351;-76
2021/10/28 02:46:01;;;;;;;143.60;108.90;;;;;;;2.21;93.34;99915.63;112502;1193;61062;-77
2021/10/28 02:48:28;;;;;;;143.70;108.90;;;;;;;2.22;93.52;99916.67;112493;1176;61004;-77
2021/10/28 02:50:55;;;;;;;157.20;116.30;;;;;;;2.21;93.48;99919.82;112509;1193;65961;-77
2021/10/28 02:53:21;;;;;;;148.70;112.80;;;;;;;2.22;93.49;99920.52;112546;1193;61065;-77
2021/10/28 02:55:48;;;;;;;147.60;114.90;;;;;;;2.23;93.55;99921.73;112496;1192;60975;-76
2021/10/28 02:58:14;;;;;;;156.70;117.10;;;;;;;2.23;93.66;99917.86;112512;1192;61032;-77
2021/10/28 03:00:41;;;;;;;155.40;112.70;;;;;;;2.23;93.55;99922.79;112489;1192;61051;-76
2021/10/28 03:03:08;;;;;;;159.80;118.20;;;;;;;2.20;93.54;99923.17;112525;1192;65972;-77
2021/10/28 03:05:35;;;;;;;155.50;113.30;;;;;;;2.19;93.62;99932.33;112542;1193;61078;-78
2021/10/28 03:08:03;;;;;;;162.70;120.20;;;;;;;2.16;93.60;99934.30;112272;1193;63847;-77
2021/10/28 03:10:29;;;;;;;135.60;107.00;;;;;;;2.14;93.59;99933.98;112491;1192;60937;-76
2021/10/28 03:12:56;;;;;;;158.00;118.10;;;;;;;2.12;93.52;99934.54;112454;1193;61115;-76
2021/10/28 03:15:26;;;;;;;154.60;116.30;;;;;;;2.10;93.64;99932.81;112510;1193;61065;-78
2021/10/28 03:25:52;;;;;;;145.10;107.90;;;;;;;2.00;93.53;99937.89;112517;1192;60975;-76
2021/10/28 03:28:20;;;;;;;141.00;106.20;;;;;;;1.97;93.50;99937.77;112507;1193;67050;-75
2021/10/28 03:30:49;;;;;;;144.40;109.00;;;;;;;1.94;93.55;99940.98;112537;1193;61026;-75
2021/10/28 03:33:18;;;;;;;144.30;111.10;;;;;;;1.91;93.52;99938.04;112606;1191;64859;-78
2021/10/28 03:35:47;;;;;;;150.10;112.40;;;;;;;1.89;93.60;99939.13;112538;1193;61052;-76
2021/10/28 03:38:27;;;;;;;140.00;109.40;;;;;;;1.86;93.51;99940.75;112500;1191;61052;-78
2021/10/28 04:05:15;;;;;;;145.00;109.10;;;;;;;1.53;93.60;99952.48;112511;1193;61045;-78
2021/10/28 04:19:34;;;;;;;142.10;109.70;;;;;;;1.49;93.71;99961.64;112492;1192;60972;-78
2021/10/28 04:29:33;;;;;;;152.90;110.50;;;;;;;1.34;93.62;99966.40;112533;1184;61145;-77
2021/10/28 04:32:00;;;;;;;147.60;108.50;;;;;;;1.35;93.96;99968.68;112340;1193;61054;-77
2021/10/28 04:34:26;;;;;;;148.50;112.50;;;;;;;1.39;94.06;99971.77;112350;1192;65675;-78
2021/10/28 04:36:53;;;;;;;146.10;108.10;;;;;;;1.40;93.90;99970.70;112505;1193;60969;-77
2021/10/28 04:39:20;;;;;;;143.30;108.20;;;;;;;1.40;93.90;99970.02;112514;1194;63666;-77
2021/10/28 04:41:47;;;;;;;145.00;110.60;;;;;;;1.38;93.68;99969.16;112558;1191;61155;-76
2021/10/28 04:44:14;;;;;;;147.20;109.70;;;;;;;1.36;93.81;99969.88;112332;1193;61029;-77
2021/10/28 04:46:41;;;;;;;144.30;106.30;;;;;;;1.36;93.94;99972.50;112527;1193;66045;-77
2021/10/28 04:49:08;;;;;;;140.40;106.30;;;;;;;1.36;94.11;99973.90;112555;1192;61049;-76
2021/10/28 04:51:34;;;;;;;142.70;108.90;;;;;;;1.36;93.87;99976.02;112491;1192;63677;-76
2021/10/28 04:54:02;;;;;;;148.60;110.20;;;;;;;1.32;93.88;99975.54;112493;1194;61161;-77
2021/10/28 04:56:28;;;;;;;147.50;111.30;;;;;;;1.33;94.10;99972.56;112534;1191;61052;-77
2021/10/28 04:58:55;;;;;;;150.20;111.30;;;;;;;1.30;93.94;99970.66;112506;1193;61004;-79
2021/10/28 05:01:23;;;;;;;152.80;109.70;;;;;;;1.27;93.94;99972.80;112512;1193;61033;-78
2021/10/28 05:03:50;;;;;;;147.20;110.70;;;;;;;1.26;93.96;99973.35;112524;1193;63696;-77
2021/10/28 05:06:16;;;;;;;138.50;107.20;;;;;;;1.24;93.96;99976.36;112470;1193;61042;-78
2021/10/28 05:08:43;;;;;;;147.60;108.60;;;;;;;1.22;93.96;99973.77;112548;1193;61055;-78
2021/10/28 05:11:10;;;;;;;147.60;106.30;;;;;;;1.21;94.10;99976.22;112536;1193;65310;-76
2021/10/28 05:13:36;;;;;;;141.70;106.10;;;;;;;1.21;94.03;99979.38;112391;1193;61040;-78
2021/10/28 05:16:05;;;;;;;142.40;107.50;;;;;;;1.20;93.97;99979.90;112477;1193;60969;-79
2021/10/28 05:18:39;;;;;;;154.70;115.70;;;;;;;1.19;94.24;99982.20;112470;1193;61441;-77
2021/10/28 05:21:07;;;;;;;147.40;109.60;;;;;;;1.22;94.45;99979.36;112547;1193;61027;-79
2021/10/28 05:23:36;;;;;;;146.30;110.80;;;;;;;1.24;94.43;99976.02;112551;1193;65997;-78
2021/10/28 05:26:03;;;;;;;152.80;114.60;;;;;;;1.25;94.35;99980.02;112453;1193;61013;-77
2021/10/28 05:28:30;;;;;;;144.20;107.90;;;;;;;1.26;94.43;99978.23;112586;1193;63712;-77
2021/10/28 05:30:56;;;;;;;149.90;108.80;;;;;;;1.28;94.33;99980.14;112227;1193;61054;-76
2021/10/28 05:33:23;;;;;;;146.90;111.30;;;;;;;1.29;94.25;99980.48;112554;1192;61062;-77
2021/10/28 05:35:49;;;;;;;147.40;110.20;;;;;;;1.30;94.33;99978.89;112486;1191;66000;-77
2021/10/28 05:38:17;;;;;;;141.90;108.60;;;;;;;1.33;94.38;99979.04;112347;1192;61023;-77
2021/10/28 05:40:44;;;;;;;138.80;105.10;;;;;;;1.35;94.29;99980.41;112524;1192;64080;-77
2021/10/28 05:43:11;;;;;;;145.40;105.00;;;;;;;1.37;94.40;99982.48;112393;1193;60997;-78
2021/10/28 05:45:38;;;;;;;140.50;107.10;;;;;;;1.40;94.23;99986.64;112372;1192;61089;-79
2021/10/28 05:48:05;;;;;;;138.40;106.50;;;;;;;1.41;94.06;99987.84;112488;1194;65696;-77
2021/10/28 05:50:32;;;;;;;140.00;107.10;;;;;;;1.43;94.03;99986.26;112512;1184;61404;-76
2021/10/28 05:53:00;;;;;;;139.60;107.80;;;;;;;1.44;93.95;99982.02;112504;1193;64290;-76
2021/10/28 05:55:27;;;;;;;140.00;107.10;;;;;;;1.45;93.85;99983.59;112504;1191;61041;-77
2021/10/28 05:57:54;;;;;;;137.80;105.90;;;;;;;1.45;93.65;99980.43;112526;1192;61026;-77
2021/10/28 06:00:23;;;;;;;147.80;112.30;;;;;;;1.48;93.79;99983.38;112526;1192;64306;-76
2021/10/28 06:02:50;;;;;;;144.30;112.90;;;;;;;1.57;94.00;99985.17;112541;1192;60947;-78
2021/10/28 06:05:17;;;;;;;139.10;107.20;;;;;;;1.64;93.93;99984.36;112528;1193;62962;-77
2021/10/28 06:07:43;;;;;;;146.90;112.80;;;;;;;1.67;93.79;99985.19;112486;1193;61039;-78
2021/10/28 06:10:12;;;;;;;151.90;117.80;;;;;;;1.71;93.72;99989.00;112353;1192;60969;-79
2021/10/28 06:12:43;;;;;;;144.10;115.40;;;;;;;1.76;93.72;99990.34;112415;1192;66252;-78
2021/10/28 06:15:12;;;;;;;150.80;116.20;;;;;;;1.84;93.72;99988.27;112509;1193;61074;-76
2021/10/28 06:17:53;;;;;;;151.40;116.10;;;;;;;1.94;93.79;99989.17;112389;1193;62375;-77
2021/10/28 06:20:21;;;;;;;154.30;117.20;;;;;;;2.06;93.80;99994.23;112506;1193;61000;-78
2021/10/28 06:22:48;;;;;;;150.40;116.90;;;;;;;2.15;93.80;99999.34;112251;1193;61228;-77
2021/10/28 06:25:15;;;;;;;143.60;113.10;;;;;;;2.24;93.85;99998.68;112481;1191;65958;-76
2021/10/28 06:27:42;;;;;;;140.50;110.00;;;;;;;2.33;93.82;99997.30;112569;1193;69555;-75
2021/10/28 06:30:09;;;;;;;142.10;113.80;;;;;;;2.42;93.81;99995.73;112510;1193;62844;-78
2021/10/28 06:32:57;;;;;;;141.60;109.40;;;;;;;2.53;93.91;99992.56;112466;1192;61668;-75
2021/10/28 06:35:25;;;;;;;133.40;106.90;;;;;;;2.65;93.95;99991.65;112543;1193;60967;-77
2021/10/28 06:37:52;;;;;;;142.00;111.60;;;;;;;2.74;93.78;99992.33;112392;1193;65856;-78
2021/10/28 06:40:22;;;;;;;136.50;108.00;;;;;;;2.82;93.61;99993.77;112562;1193;61006;-79
2021/10/28 06:42:48;;;;;;;135.00;107.10;;;;;;;2.90;93.53;99995.72;112631;1192;65031;-76
2021/10/28 06:45:17;;;;;;;136.20;106.10;;;;;;;2.99;93.63;99998.34;112561;1193;61013;-78
2021/10/28 06:47:44;;;;;;;133.50;106.60;;;;;;;3.10;93.62;99997.07;112519;1193;61008;-78
2021/10/28 06:50:12;;;;;;;132.80;104.80;;;;;;;3.22;93.64;100001.73;112364;1193;66882;-77
2021/10/28 06:52:51;;;;;;;133.80;104.20;;;;;;;3.34;93.69;100001.84;112398;1193;61426;-76
2021/10/28 07:03:31;;;;;;;119.60;91.60;;;;;;;3.81;93.74;100004.14;112570;1193;66871;-77
2021/10/28 07:06:23;;;;;;;114.40;90.10;;;;;;;3.91;93.71;100004.63;112412;1193;60979;-77
2021/10/28 07:08:49;;;;;;;106.00;83.40;;;;;;;4.02;93.72;100002.44;112484;1192;65189;-77
2021/10/28 07:11:24;;;;;;;92.50;75.90;;;;;;;4.12;93.80;100002.35;112530;1192;61067;-76
2021/10/28 07:13:53;;;;;;;101.80;76.90;;;;;;;4.23;93.88;100001.90;112479;1182;61730;-76
2021/10/28 07:32:19;;;;;;;59.90;48.40;;;;;;;5.01;93.84;99991.56;112490;1192;60921;-79
2021/10/28 08:15:45;;;;;;;53.80;44.20;;;;;;;6.84;92.66;99956.45;112307;1193;63671;-77
2021/10/28 08:18:29;;;;;;;52.70;44.00;;;;;;;6.95;92.48;99954.27;112274;1193;61035;-78
2021/10/28 08:31:51;;;;;;;52.20;43.60;;;;;;;7.54;91.82;99943.52;112490;1192;61142;-77
2021/10/28 08:34:23;;;;;;;48.90;43.00;;;;;;;7.67;91.83;99936.15;112467;1192;61042;-77
2021/10/28 08:36:52;;;;;;;53.30;46.50;;;;;;;7.79;91.74;99932.98;112511;1193;64658;-78
2021/10/28 08:39:23;;;;;;;51.50;42.30;;;;;;;7.91;91.63;99934.30;112506;1192;60944;-76
2021/10/28 08:41:50;;;;;;;50.40;43.30;;;;;;;8.02;91.53;99930.83;112496;1193;63950;-77
2021/10/28 08:44:21;;;;;;;50.80;42.50;;;;;;;8.16;91.51;99930.62;112537;1193;61136;-77
2021/10/28 08:46:52;;;;;;;51.60;41.80;;;;;;;8.29;91.37;99923.66;112548;1192;61066;-77
2021/10/28 08:49:24;;;;;;;52.10;41.40;;;;;;;8.42;91.17;99922.25;112561;1192;65793;-77
2021/10/28 08:54:47;;;;;;;45.20;37.40;;;;;;;8.64;90.64;99923.05;112454;1193;63904;-79
2021/10/28 09:27:01;;;;;;;40.40;33.10;;;;;;;10.21;87.76;99901.60;112487;1192;61046;-75
2021/10/28 09:51:19;;;;;;;33.40;28.70;;;;;;;11.27;85.45;99885.36;112239;1193;64864;-77
2021/10/28 09:59:33;;;;;;;31.70;27.10;;;;;;;11.57;84.45;99882.05;112449;1193;64692;-79
2021/10/28 10:02:11;;;;;;;;;;;;;;;11.67;84.43;99877.02;112537;1193;60970;-78
2021/10/28 10:04:41;;;;;;;31.90;26.70;;;;;;;11.80;84.27;99873.27;112466;1192;63918;-77
2021/10/28 10:07:11;;;;;;;34.70;27.70;;;;;;;11.93;84.05;99865.96;112493;1191;61069;-77
2021/10/28 10:09:39;;;;;;;29.80;25.50;;;;;;;12.03;83.59;99864.85;112350;1191;61055;-77
2021/10/28 10:12:09;;;;;;;32.70;26.60;;;;;;;12.13;83.52;99863.70;112522;1184;65790;-77
2021/10/28 10:14:38;;;;;;;32.30;25.50;;;;;;;12.23;83.16;99863.29;112497;1193;61121;-79
2021/10/28 10:17:06;;;;;;;30.50;25.90;;;;;;;12.32;83.04;99859.38;112547;1193;63866;-76
2021/10/28 10:19:38;;;;;;;33.10;27.40;;;;;;;12.41;82.60;99860.27;112574;1193;61103;-76
2021/10/28 10:22:17;;;;;;;28.00;24.90;;;;;;;12.49;82.40;99858.36;112581;1192;61109;-78
2021/10/28 10:24:59;;;;;;;28.40;24.60;;;;;;;12.58;82.11;99856.38;112535;1192;64720;-77
2021/10/28 10:30:28;;;;;;;27.40;23.70;;;;;;;12.77;81.64;99850.20;112519;1193;62368;-78
2021/10/28 11:26:42;;;;;;;15.00;12.70;;;;;;;13.95;73.51;99795.23;112498;1193;60987;-76
2021/10/28 11:32:24;;;;;;;14.50;12.80;;;;;;;14.02;73.03;99789.95;112549;1192;61020;-78
2021/10/28 12:45:20;;;;;;;16.80;13.40;;;;;;;14.74;66.90;99704.49;112576;1186;66118;-89
2021/10/28 12:53:41;;;;;;;15.10;13.60;;;;;;;14.75;66.57;99704.02;112179;1193;60940;-79
2021/10/28 13:07:45;;;;;;;17.90;12.50;;;;;;;14.77;65.94;99698.88;112548;1193;61074;-79
2021/10/28 13:49:03;;;;;;;14.20;12.50;;;;;;;14.54;65.08;99682.33;112527;1192;61010;-79
2021/10/28 13:51:39;;;;;;;16.70;12.60;;;;;;;14.51;64.88;99680.30;112522;1192;61046;-79
2021/10/28 13:54:31;;;;;;;17.00;13.50;;;;;;;14.50;64.87;99678.79;112546;1192;64841;-79
2021/10/28 13:57:11;;;;;;;22.70;16.80;;;;;;;14.48;65.10;99677.16;112307;1192;61094;-80
2021/10/28 15:29:18;;;;;;;28.60;19.70;;;;;;;11.48;70.06;99679.21;112262;1192;66973;-79
2021/10/28 15:37:13;;;;;;;42.50;29.40;;;;;;;11.09;70.83;99667.79;112560;1193;60972;-80
2021/10/28 16:21:50;;;;;;;93.30;56.50;;;;;;;9.91;73.95;99663.53;112540;1193;61078;-78
2021/10/28 16:23:23;;;;;;;75.90;45.90;;;;;;;9.37;75.25;99668.83;112544;1191;66766;-79
2021/10/28 16:25:50;;;;;;;75.00;49.40;;;;;;;9.29;75.51;99668.31;112253;1192;61138;-80
2021/10/28 16:28:17;;;;;;;112.60;83.10;;;;;;;9.22;75.66;99673.28;112228;1192;64862;-78
2021/10/28 16:30:45;;;;;;;111.70;85.50;;;;;;;9.15;75.89;99671.88;112392;1193;61035;-79
2021/10/28 16:33:13;;;;;;;130.70;95.90;;;;;;;9.09;76.14;99673.23;112548;1193;60972;-81
2021/10/28 16:35:41;;;;;;;123.30;88.60;;;;;;;9.04;76.39;99675.09;112407;1192;67013;-79
2021/10/28 16:38:09;;;;;;;164.30;116.60;;;;;;;8.98;76.60;99673.95;112571;1193;60957;-80
2021/10/28 16:40:37;;;;;;;142.90;104.60;;;;;;;8.92;76.72;99675.50;112452;1192;62518;-80
2021/10/28 16:43:03;;;;;;;137.50;97.10;;;;;;;8.86;76.97;99676.67;112199;1177;61041;-78
2021/10/28 16:45:30;;;;;;;161.90;116.40;;;;;;;8.79;77.18;99675.26;112361;1192;61035;-80
2021/10/28 16:47:58;;;;;;;118.60;82.00;;;;;;;8.73;77.34;99677.83;112523;1192;64473;-80
2021/10/28 16:50:25;;;;;;;156.20;109.40;;;;;;;8.66;77.43;99675.34;112621;1193;60956;-79
2021/10/28 16:52:52;;;;;;;139.20;100.00;;;;;;;8.60;77.67;99677.77;112537;1192;62356;-79
2021/10/28 16:55:19;;;;;;;133.60;96.10;;;;;;;8.53;77.86;99679.86;112528;1184;61017;-80
2021/10/28 16:57:45;;;;;;;157.70;111.10;;;;;;;8.45;78.00;99677.92;112601;1193;60971;-80
2021/10/28 17:00:12;;;;;;;146.40;108.80;;;;;;;8.39;78.30;99675.35;112556;1193;65661;-79
2021/10/28 17:02:41;;;;;;;136.00;96.50;;;;;;;8.34;78.56;99675.21;112467;1193;61036;-78
2021/10/28 17:05:09;;;;;;;134.00;95.40;;;;;;;8.27;78.73;99672.73;112599;1193;63629;-81
2021/10/28 17:07:36;;;;;;;135.10;93.60;;;;;;;8.19;78.84;99671.30;112577;1192;61056;-79
2021/10/28 17:10:04;;;;;;;133.20;97.30;;;;;;;8.12;79.02;99669.67;112475;1192;61112;-79
2021/10/28 17:12:31;;;;;;;136.60;93.90;;;;;;;8.05;79.17;99669.98;112555;1193;64539;-79
2021/10/28 17:14:57;;;;;;;126.50;89.70;;;;;;;7.99;79.35;99672.92;112589;1192;61025;-79
2021/10/28 17:17:24;;;;;;;123.40;88.20;;;;;;;7.93;79.50;99669.86;112507;1192;60992;-79
2021/10/28 17:19:51;;;;;;;132.00;90.50;;;;;;;7.86;79.73;99670.16;112544;1192;61024;-79
2021/10/28 17:22:18;;;;;;;121.20;86.60;;;;;;;7.80;79.76;99667.77;112521;1193;61087;-79
2021/10/28 17:24:47;;;;;;;117.20;84.30;;;;;;;7.74;80.01;99663.48;112288;1192;65615;-78
2021/10/28 17:27:14;;;;;;;125.80;85.10;;;;;;;7.67;80.19;99663.08;112476;1193;60970;-79
2021/10/28 17:29:41;;;;;;;120.10;81.10;;;;;;;7.60;80.36;99666.19;112487;1192;63858;-79
2021/10/28 17:32:09;;;;;;;120.70;80.50;;;;;;;7.54;80.45;99666.98;112510;1192;61023;-79
2021/10/28 17:34:36;;;;;;;117.20;77.60;;;;;;;7.48;80.53;99665.99;112516;1193;61045;-80
2021/10/28 17:37:04;;;;;;;124.70;82.70;;;;;;;7.42;80.65;99665.89;112479;1192;65669;-79
2021/10/28 17:39:32;;;;;;;126.40;82.90;;;;;;;7.37;80.81;99670.74;112383;1193;61055;-80
2021/10/28 17:41:59;;;;;;;149.30;97.70;;;;;;;7.30;80.92;99672.61;112550;1192;63734;-80
2021/10/28 17:44:41;;;;;;;123.00;82.50;;;;;;;7.24;81.10;99673.74;112530;1192;61161;-81
2021/10/28 17:47:08;;;;;;;130.20;85.20;;;;;;;7.18;81.23;99673.48;112476;1192;60940;-80
2021/10/28 17:49:36;;;;;;;128.70;90.70;;;;;;;7.12;81.37;99671.27;112544;1192;65983;-80
2021/10/28 17:52:05;;;;;;;136.80;93.20;;;;;;;7.06;81.60;99670.66;112547;1192;61031;-80
2021/10/28 17:54:32;;;;;;;140.20;98.70;;;;;;;7.00;81.78;99672.27;112295;1193;64978;-79
2021/10/28 17:56:59;;;;;;;148.10;101.20;;;;;;;6.95;81.86;99668.42;112523;1192;61005;-81
2021/10/28 17:59:26;;;;;;;143.90;97.70;;;;;;;6.92;82.08;99666.45;112558;1192;60956;-80
2021/10/28 18:01:54;;;;;;;151.30;100.90;;;;;;;6.91;82.47;99665.23;112564;1192;64364;-80
2021/10/28 18:04:22;;;;;;;144.50;97.20;;;;;;;6.90;82.69;99661.05;112574;1191;61024;-80
2021/10/28 18:06:50;;;;;;;137.00;93.30;;;;;;;6.88;82.80;99660.42;112530;1191;62651;-80
2021/10/28 18:09:18;;;;;;;143.50;95.40;;;;;;;6.85;82.87;99660.02;112629;1193;60978;-82
2021/10/28 18:11:45;;;;;;;134.60;92.60;;;;;;;6.80;82.97;99656.14;112501;1191;60904;-81
2021/10/28 18:14:15;;;;;;;136.60;92.30;;;;;;;6.75;83.02;99655.83;112635;1192;66684;-81
2021/10/28 18:16:42;;;;;;;126.20;88.80;;;;;;;6.69;83.10;99653.08;112515;1192;60972;-80
2021/10/28 18:19:09;;;;;;;137.10;91.60;;;;;;;6.64;83.05;99651.35;112557;1192;63896;-80
2021/10/28 18:21:47;;;;;;;132.90;92.50;;;;;;;6.59;83.16;99651.88;112549;1193;60959;-79
2021/10/28 18:24:14;;;;;;;131.30;88.90;;;;;;;6.54;83.24;99651.04;112486;1192;60976;-80
2021/10/28 18:26:41;;;;;;;131.30;94.70;;;;;;;6.47;83.44;99650.05;112557;1191;65595;-79
2021/10/28 18:29:08;;;;;;;123.50;84.70;;;;;;;6.42;83.51;99647.96;112580;1192;61026;-79
2021/10/28 18:31:35;;;;;;;130.50;90.80;;;;;;;6.38;83.65;99648.48;112469;1193;62755;-81
2021/10/28 18:34:02;;;;;;;138.40;94.50;;;;;;;6.35;83.78;99647.73;112497;1193;61026;-81
2021/10/28 18:36:34;;;;;;;137.50;95.00;;;;;;;6.31;84.00;99649.29;112327;1192;60981;-79
2021/10/28 18:39:04;;;;;;;134.90;92.70;;;;;;;6.27;84.14;99649.98;112594;1193;65643;-80
2021/10/28 18:41:31;;;;;;;135.50;96.20;;;;;;;6.22;84.26;99647.86;112625;1193;60969;-80
2021/10/28 18:43:58;;;;;;;149.30;104.80;;;;;;;6.18;84.40;99648.04;112585;1192;63194;-78
2021/10/28 18:46:24;;;;;;;147.20;102.30;;;;;;;6.14;84.57;99648.15;112491;1193;61067;-80
2021/10/28 18:48:53;;;;;;;141.30;97.20;;;;;;;6.11;84.66;99646.89;112584;1193;61885;-79
2021/10/28 18:51:21;;;;;;;177.10;116.70;;;;;;;6.05;84.68;99644.80;112573;1193;65819;-80
2021/10/28 18:53:49;;;;;;;144.90;97.70;;;;;;;6.00;84.78;99645.16;112524;1192;61131;-80
2021/10/28 18:56:18;;;;;;;146.20;99.90;;;;;;;5.93;84.75;99639.92;112538;1193;62983;-79
2021/10/28 18:58:46;;;;;;;144.90;103.50;;;;;;;5.88;84.84;99644.34;112526;1192;61161;-80
2021/10/28 19:01:15;;;;;;;136.80;96.20;;;;;;;5.83;84.86;99642.96;112559;1192;61074;-79
2021/10/28 19:03:44;;;;;;;123.30;86.10;;;;;;;5.78;84.94;99642.27;112646;1192;64521;-80
2021/10/28 19:06:11;;;;;;;149.10;101.80;;;;;;;5.72;85.03;99642.31;112595;1193;61007;-79
2021/10/28 19:08:40;;;;;;;150.20;100.60;;;;;;;5.65;85.14;99640.08;112607;1193;64746;-80
2021/10/28 19:11:09;;;;;;;176.20;120.30;;;;;;;5.60;85.31;99640.80;112563;1192;61452;-80
2021/10/28 19:13:39;;;;;;;175.60;122.80;;;;;;;5.59;85.68;99638.02;112553;1192;61113;-80
2021/10/28 19:16:07;;;;;;;199.40;135.00;;;;;;;5.59;86.03;99634.13;112559;1193;65641;-79
2021/10/28 19:18:34;;;;;;;163.80;116.90;;;;;;;5.58;86.13;99631.71;112356;1193;61055;-80
2021/10/28 19:21:01;;;;;;;169.20;116.60;;;;;;;5.55;86.10;99628.13;112538;1187;64840;-79
2021/10/28 19:23:28;;;;;;;172.00;117.50;;;;;;;5.51;86.27;99624.73;112559;1192;61032;-80
2021/10/28 19:25:55;;;;;;;185.20;123.60;;;;;;;5.47;86.37;99627.17;112487;1192;60969;-79
2021/10/28 19:28:24;;;;;;;176.70;122.90;;;;;;;5.42;86.30;99628.39;112487;1192;66015;-79
2021/10/28 19:33:28;;;;;;;197.20;128.00;;;;;;;5.34;86.41;99626.22;112519;1192;64893;-79
2021/10/28 19:36:01;;;;;;;182.40;122.30;;;;;;;5.30;86.46;99624.61;112544;1193;61043;-81
2021/10/28 19:41:17;;;;;;;191.50;128.80;;;;;;;5.20;86.49;99621.80;112535;1193;67014;-78
2021/10/28 19:46:29;;;;;;;225.70;147.80;;;;;;;5.08;86.75;99625.55;112519;1193;63887;-79
2021/10/28 19:48:56;;;;;;;221.70;147.80;;;;;;;5.06;86.97;99625.42;112563;1193;61084;-81
2021/10/28 19:51:22;;;;;;;223.60;142.00;;;;;;;5.07;87.18;99624.86;112545;1177;61452;-80
2021/10/28 19:53:50;;;;;;;213.80;139.60;;;;;;;5.08;87.44;99626.26;112340;1192;64791;-80
2021/10/28 19:56:18;;;;;;;207.40;137.00;;;;;;;5.05;87.38;99624.92;112518;1192;60946;-80
2021/10/28 19:58:54;;;;;;;214.80;147.60;;;;;;;5.01;87.58;99621.91;112553;1193;64701;-80
2021/10/28 20:04:32;;;;;;;188.80;130.00;;;;;;;4.95;87.63;99621.59;112457;1192;61009;-80
2021/10/28 20:07:57;;;;;;;217.60;143.30;;;;;;;4.88;87.66;99622.70;112547;1193;64649;-79